createdAt,value
2017-08-26T00:01:20.666Z,95.10
2017-08-26T00:03:48.204Z,95.20
2017-08-26T00:06:15.750Z,95.20
2017-08-26T00:08:43.273Z,95.10
2017-08-26T00:11:13.191Z,95.20
2017-08-26T00:13:40.724Z,95.30
2017-08-26T00:16:08.270Z,95.50
2017-08-26T00:18:35.814Z,95.30
2017-08-26T00:21:03.366Z,95.30
2017-08-26T00:23:30.901Z,95.40
2017-08-26T00:25:58.426Z,95.60
2017-08-26T00:28:25.976Z,95.70
2017-08-26T00:30:53.507Z,95.50
2017-08-26T00:33:21.078Z,95.80
2017-08-26T00:35:49.896Z,95.80
2017-08-26T00:38:17.429Z,95.90
2017-08-26T00:40:44.964Z,96.00
2017-08-26T00:43:12.504Z,95.80
2017-08-26T00:45:40.029Z,95.80
2017-08-26T00:48:07.560Z,96.00
2017-08-26T00:50:35.098Z,95.80
2017-08-26T00:53:02.623Z,95.70
2017-08-26T00:55:30.157Z,95.90
2017-08-26T00:57:57.688Z,95.80
2017-08-26T01:00:25.214Z,95.80
2017-08-26T01:02:52.745Z,95.90
2017-08-26T01:05:20.295Z,95.80
2017-08-26T01:07:48.556Z,95.90
2017-08-26T01:10:16.090Z,95.90
2017-08-26T01:12:43.624Z,95.70
2017-08-26T01:15:11.131Z,95.70
2017-08-26T01:17:38.653Z,95.70
2017-08-26T01:20:06.165Z,95.80
2017-08-26T01:22:33.709Z,95.90
2017-08-26T01:25:01.221Z,95.80
2017-08-26T01:27:28.757Z,95.80
2017-08-26T01:29:56.287Z,95.70
2017-08-26T01:32:23.807Z,96.00
2017-08-26T01:34:51.331Z,96.00
2017-08-26T01:37:19.678Z,96.10
2017-08-26T01:39:47.211Z,95.90
2017-08-26T01:42:14.745Z,95.90
2017-08-26T01:44:42.280Z,95.90
2017-08-26T01:47:09.807Z,96.00
2017-08-26T01:49:37.343Z,95.90
2017-08-26T01:52:04.913Z,95.80
2017-08-26T01:54:32.434Z,95.90
2017-08-26T01:56:59.974Z,95.80
2017-08-26T01:59:27.515Z,95.90
2017-08-26T02:01:55.132Z,95.80
2017-08-26T02:04:22.684Z,95.90
2017-08-26T02:06:50.188Z,95.80
2017-08-26T02:09:17.712Z,95.90
2017-08-26T02:11:45.253Z,96.00
2017-08-26T02:14:12.807Z,96.00
2017-08-26T02:16:41.494Z,96.00
2017-08-26T02:19:09.115Z,95.90
2017-08-26T02:21:36.640Z,96.00
2017-08-26T02:24:04.191Z,95.90
2017-08-26T02:26:31.788Z,95.90
2017-08-26T02:28:59.297Z,96.00
2017-08-26T02:31:26.816Z,96.10
2017-08-26T02:33:54.363Z,96.10
2017-08-26T02:36:21.952Z,96.20
2017-08-26T02:38:50.721Z,96.00
2017-08-26T02:41:18.745Z,96.30
2017-08-26T02:43:46.257Z,96.20
2017-08-26T02:46:13.796Z,96.20
2017-08-26T02:48:41.329Z,96.30
2017-08-26T02:51:08.863Z,96.20
2017-08-26T02:53:36.401Z,96.30
2017-08-26T02:56:03.925Z,96.30
2017-08-26T02:58:31.471Z,96.30
2017-08-26T03:00:59.027Z,96.20
2017-08-26T03:03:26.563Z,96.10
2017-08-26T03:05:54.072Z,96.20
2017-08-26T03:08:21.620Z,96.30
2017-08-26T03:10:49.277Z,96.30
2017-08-26T03:13:16.789Z,96.30
2017-08-26T03:15:44.335Z,96.30
2017-08-26T03:18:11.842Z,96.40
2017-08-26T03:20:39.357Z,96.40
2017-08-26T03:23:06.866Z,96.40
2017-08-26T03:25:34.413Z,96.50
2017-08-26T03:28:01.985Z,96.30
2017-08-26T03:30:29.536Z,96.30
2017-08-26T03:32:57.076Z,96.40
2017-08-26T03:35:24.609Z,96.30
2017-08-26T03:37:52.157Z,96.20
2017-08-26T03:40:20.732Z,96.00
2017-08-26T03:42:48.874Z,96.00
2017-08-26T03:45:16.439Z,95.90
2017-08-26T03:47:43.982Z,96.00
2017-08-26T03:50:11.500Z,96.00
2017-08-26T03:52:39.016Z,96.00
2017-08-26T03:55:06.537Z,95.90
2017-08-26T03:57:34.098Z,96.00
2017-08-26T04:00:01.627Z,96.00
2017-08-26T04:02:29.147Z,95.90
2017-08-26T04:04:56.683Z,95.80
2017-08-26T04:07:24.212Z,96.00
2017-08-26T04:09:51.754Z,95.90
2017-08-26T04:12:19.302Z,96.20
2017-08-26T04:14:46.830Z,96.30
2017-08-26T04:17:14.373Z,96.20
2017-08-26T04:19:41.892Z,96.20
2017-08-26T04:22:09.433Z,96.20
2017-08-26T04:24:36.938Z,96.20
2017-08-26T04:27:04.474Z,96.30
2017-08-26T04:29:32.035Z,96.30
2017-08-26T04:31:59.592Z,96.20
2017-08-26T04:34:27.109Z,96.10
2017-08-26T04:36:54.636Z,96.20
2017-08-26T04:39:22.164Z,96.40
2017-08-26T04:41:51.016Z,96.40
2017-08-26T04:44:19.162Z,96.30
2017-08-26T04:46:46.686Z,96.20
2017-08-26T04:49:14.214Z,96.20
2017-08-26T04:51:43.694Z,96.30
2017-08-26T04:54:11.232Z,96.20
2017-08-26T04:56:38.747Z,96.30
2017-08-26T04:59:06.730Z,96.50
2017-08-26T05:01:34.274Z,96.50
2017-08-26T05:04:01.787Z,96.30
2017-08-26T05:06:29.331Z,96.60
2017-08-26T05:08:56.851Z,96.50
2017-08-26T05:11:24.400Z,96.60
2017-08-26T05:13:51.905Z,96.70
2017-08-26T05:16:20.459Z,96.70
2017-08-26T05:18:49.053Z,96.70
2017-08-26T05:21:16.567Z,96.50
2017-08-26T05:23:44.139Z,96.60
2017-08-26T05:26:11.650Z,96.50
2017-08-26T05:28:39.246Z,96.50
2017-08-26T05:31:06.759Z,96.40
2017-08-26T05:33:34.273Z,96.40
2017-08-26T05:36:01.811Z,96.30
2017-08-26T05:38:29.331Z,96.30
2017-08-26T05:40:56.873Z,96.30
2017-08-26T05:43:24.390Z,96.20
2017-08-26T05:45:51.936Z,96.20
2017-08-26T05:48:20.098Z,96.20
2017-08-26T05:50:47.647Z,96.30
2017-08-26T05:53:15.195Z,96.20
2017-08-26T05:55:42.711Z,96.00
2017-08-26T05:58:10.244Z,96.10
2017-08-26T06:00:37.811Z,96.10
2017-08-26T06:03:05.358Z,96.10
2017-08-26T06:05:32.924Z,95.90
2017-08-26T06:08:00.463Z,96.00
2017-08-26T06:10:27.985Z,95.90
2017-08-26T06:12:55.523Z,96.00
2017-08-26T06:15:23.039Z,96.10
2017-08-26T06:17:50.559Z,96.00
2017-08-26T06:20:18.742Z,95.70
2017-08-26T06:22:46.262Z,95.70
2017-08-26T06:25:13.803Z,95.90
2017-08-26T06:27:41.321Z,95.90
2017-08-26T06:30:08.852Z,95.90
2017-08-26T06:32:36.453Z,95.90
2017-08-26T06:35:03.995Z,95.50
2017-08-26T06:37:31.514Z,95.10
2017-08-26T06:39:59.036Z,95.40
2017-08-26T06:42:26.572Z,95.40
2017-08-26T06:44:54.081Z,94.90
2017-08-26T06:47:21.973Z,95.10
2017-08-26T06:49:50.223Z,95.20
2017-08-26T06:52:17.761Z,95.40
2017-08-26T06:54:45.280Z,95.00
2017-08-26T06:57:12.806Z,95.20
2017-08-26T06:59:40.343Z,94.50
2017-08-26T07:02:07.845Z,94.70
2017-08-26T07:04:35.356Z,94.20
2017-08-26T07:07:02.882Z,94.20
2017-08-26T07:09:30.406Z,94.20
2017-08-26T07:11:58.042Z,92.90
2017-08-26T07:14:25.563Z,93.10
2017-08-26T07:16:53.371Z,92.40
2017-08-26T07:19:20.936Z,92.20
2017-08-26T07:21:49.102Z,92.50
2017-08-26T07:24:16.602Z,91.50
2017-08-26T07:26:44.132Z,91.30
2017-08-26T07:29:11.635Z,91.70
2017-08-26T07:31:39.157Z,92.00
2017-08-26T07:34:06.659Z,92.30
2017-08-26T07:36:34.195Z,91.60
2017-08-26T07:39:01.713Z,91.40
2017-08-26T07:41:29.230Z,90.40
2017-08-26T07:43:56.911Z,90.40
2017-08-26T07:46:24.419Z,90.30
2017-08-26T07:48:51.951Z,90.30
2017-08-26T07:51:20.615Z,90.00
2017-08-26T07:53:48.971Z,89.40
2017-08-26T07:56:16.484Z,89.00
2017-08-26T07:58:44.019Z,88.20
2017-08-26T08:01:11.533Z,89.00
2017-08-26T08:03:39.033Z,88.50
2017-08-26T08:06:06.564Z,88.70
2017-08-26T08:08:34.076Z,88.10
2017-08-26T08:11:01.634Z,88.70
2017-08-26T08:13:29.145Z,89.20
2017-08-26T08:15:56.665Z,89.30
2017-08-26T08:18:24.174Z,88.80
2017-08-26T08:20:51.691Z,89.40
2017-08-26T08:23:19.652Z,89.70
2017-08-26T08:25:47.193Z,89.50
2017-08-26T08:28:14.701Z,89.80
2017-08-26T08:30:45.368Z,89.40
2017-08-26T08:33:12.912Z,89.50
2017-08-26T08:35:40.417Z,89.10
2017-08-26T08:38:07.951Z,90.00
2017-08-26T08:40:35.474Z,89.00
2017-08-26T08:43:03.008Z,88.80
2017-08-26T08:45:30.519Z,88.70
2017-08-26T08:47:58.062Z,89.50
2017-08-26T08:50:25.645Z,88.70
2017-08-26T08:52:53.187Z,88.50
2017-08-26T08:55:21.003Z,88.50
2017-08-26T08:57:49.149Z,88.40
2017-08-26T09:00:16.702Z,88.20
2017-08-26T09:02:44.224Z,88.00
2017-08-26T09:05:11.781Z,88.30
2017-08-26T09:07:39.289Z,88.30
2017-08-26T09:10:06.815Z,88.90
2017-08-26T09:12:34.355Z,88.40
2017-08-26T09:15:01.887Z,89.30
2017-08-26T09:17:29.407Z,89.10
2017-08-26T09:19:56.949Z,88.40
2017-08-26T09:22:24.470Z,88.90
2017-08-26T09:24:51.974Z,89.10
2017-08-26T09:27:20.298Z,88.90
2017-08-26T09:29:47.811Z,89.00
2017-08-26T09:32:15.321Z,89.10
2017-08-26T09:34:42.838Z,89.50
2017-08-26T09:37:10.349Z,89.70
2017-08-26T09:39:37.873Z,89.40
2017-08-26T09:42:05.406Z,88.60
2017-08-26T09:44:32.923Z,88.70
2017-08-26T09:47:00.460Z,88.30
2017-08-26T09:49:27.971Z,87.30
2017-08-26T09:51:55.487Z,87.20
2017-08-26T09:54:23.044Z,88.00
2017-08-26T09:56:50.562Z,88.80
2017-08-26T09:59:20.354Z,88.90
2017-08-26T10:01:47.870Z,88.80
2017-08-26T10:04:15.421Z,88.60
2017-08-26T10:06:42.947Z,89.50
2017-08-26T10:09:10.512Z,88.60
2017-08-26T10:11:38.021Z,87.20
2017-08-26T10:14:05.545Z,87.80
2017-08-26T10:16:33.060Z,88.20
2017-08-26T10:19:00.585Z,88.40
2017-08-26T10:21:28.107Z,87.50
2017-08-26T10:23:55.618Z,87.00
2017-08-26T10:26:23.162Z,87.20
2017-08-26T10:28:50.677Z,86.90
2017-08-26T10:31:18.906Z,86.40
2017-08-26T10:33:46.424Z,86.40
2017-08-26T10:36:13.946Z,86.10
2017-08-26T10:38:41.450Z,85.30
2017-08-26T10:41:08.988Z,86.40
2017-08-26T10:43:36.548Z,85.70
2017-08-26T10:46:04.105Z,84.80
2017-08-26T10:48:31.616Z,84.70
2017-08-26T10:50:59.136Z,85.00
2017-08-26T10:53:26.659Z,84.60
2017-08-26T10:55:54.185Z,84.40
2017-08-26T10:58:22.557Z,84.00
2017-08-26T11:00:51.137Z,84.20
2017-08-26T11:03:19.546Z,85.30
2017-08-26T11:05:47.056Z,83.90
2017-08-26T11:08:14.586Z,83.70
2017-08-26T11:10:42.099Z,83.50
2017-08-26T11:13:09.600Z,82.90
2017-08-26T11:15:37.136Z,81.40
2017-08-26T11:18:04.663Z,82.30
2017-08-26T11:20:32.212Z,82.20
2017-08-26T11:22:59.751Z,82.10
2017-08-26T11:25:27.305Z,81.10
2017-08-26T11:27:54.796Z,80.40
2017-08-26T11:30:22.385Z,81.20
2017-08-26T11:32:51.148Z,81.70
2017-08-26T11:35:19.718Z,81.40
2017-08-26T11:37:47.244Z,81.60
2017-08-26T11:40:15.076Z,80.90
2017-08-26T11:42:42.611Z,80.90
2017-08-26T11:45:10.123Z,81.30
2017-08-26T11:47:37.655Z,81.40
2017-08-26T11:50:05.169Z,80.50
2017-08-26T11:52:32.699Z,80.30
2017-08-26T11:55:00.311Z,79.80
2017-08-26T11:57:27.841Z,78.20
2017-08-26T11:59:55.587Z,80.00
2017-08-26T12:02:23.195Z,79.90
2017-08-26T12:04:50.701Z,79.00
2017-08-26T12:07:18.946Z,79.30
2017-08-26T12:09:46.489Z,80.00
2017-08-26T12:12:14.007Z,79.80
2017-08-26T12:14:41.563Z,80.40
2017-08-26T12:17:09.083Z,79.60
2017-08-26T12:19:36.605Z,78.00
2017-08-26T12:22:04.123Z,78.40
2017-08-26T12:24:31.646Z,77.90
2017-08-26T12:26:59.162Z,78.20
2017-08-26T12:29:26.706Z,80.30
2017-08-26T12:31:54.222Z,79.20
2017-08-26T12:34:21.757Z,78.30
2017-08-26T12:36:50.447Z,78.80
2017-08-26T12:39:17.974Z,79.50
2017-08-26T12:41:45.558Z,77.80
2017-08-26T12:44:13.074Z,79.40
2017-08-26T12:46:40.953Z,80.00
2017-08-26T12:49:08.476Z,78.00
2017-08-26T12:51:36.379Z,77.30
2017-08-26T12:54:03.939Z,78.30
2017-08-26T12:56:31.712Z,78.60
2017-08-26T12:58:59.226Z,76.90
2017-08-26T13:01:26.755Z,76.00
2017-08-26T13:03:54.257Z,76.60
2017-08-26T13:06:22.169Z,77.30
2017-08-26T13:08:50.269Z,76.70
2017-08-26T13:11:17.806Z,76.50
2017-08-26T13:13:45.327Z,76.00
2017-08-26T13:16:12.835Z,76.40
2017-08-26T13:18:40.378Z,74.00
2017-08-26T13:21:07.891Z,74.20
2017-08-26T13:23:35.444Z,75.80
2017-08-26T13:26:02.964Z,76.50
2017-08-26T13:28:30.492Z,76.40
2017-08-26T13:30:58.010Z,76.10
2017-08-26T13:33:25.534Z,75.60
2017-08-26T13:35:53.047Z,76.10
2017-08-26T13:38:20.586Z,76.70
2017-08-26T13:40:48.087Z,76.00
2017-08-26T13:43:15.626Z,76.00
2017-08-26T13:45:43.142Z,75.40
2017-08-26T13:48:10.798Z,76.80
2017-08-26T13:50:38.324Z,75.30
2017-08-26T13:53:05.826Z,74.60
2017-08-26T13:55:33.439Z,74.50
2017-08-26T13:58:00.971Z,74.40
2017-08-26T14:00:28.507Z,74.10
2017-08-26T14:02:56.029Z,74.20
2017-08-26T14:05:23.569Z,73.60
2017-08-26T14:07:51.082Z,73.70
2017-08-26T14:10:20.322Z,74.60
2017-08-26T14:12:47.838Z,73.70
2017-08-26T14:15:15.357Z,73.30
2017-08-26T14:17:42.874Z,73.70
2017-08-26T14:20:10.390Z,72.80
2017-08-26T14:22:37.918Z,72.80
2017-08-26T14:25:05.442Z,74.00
2017-08-26T14:27:32.979Z,73.40
2017-08-26T14:30:00.503Z,74.00
2017-08-26T14:32:29.081Z,74.40
2017-08-26T14:34:56.605Z,74.80
2017-08-26T14:37:24.131Z,75.80
2017-08-26T14:39:51.648Z,74.90
2017-08-26T14:42:19.901Z,74.50
2017-08-26T14:44:47.423Z,74.30
2017-08-26T14:47:14.976Z,74.80
2017-08-26T14:49:42.484Z,75.30
2017-08-26T14:52:10.001Z,74.30
2017-08-26T14:54:37.532Z,73.90
2017-08-26T14:57:05.034Z,74.30
2017-08-26T14:59:32.567Z,73.80
2017-08-26T15:02:00.078Z,74.60
2017-08-26T15:04:27.616Z,74.60
2017-08-26T15:06:55.118Z,74.80
2017-08-26T15:09:22.643Z,74.30
2017-08-26T15:11:51.072Z,73.90
2017-08-26T15:14:19.062Z,75.50
2017-08-26T15:16:46.577Z,74.00
2017-08-26T15:19:14.102Z,73.90
2017-08-26T15:21:41.638Z,74.40
2017-08-26T15:24:09.191Z,74.80
2017-08-26T15:26:36.726Z,74.40
2017-08-26T15:29:04.239Z,74.20
2017-08-26T15:31:31.779Z,75.20
2017-08-26T15:33:59.290Z,74.10
2017-08-26T15:36:26.844Z,73.80
2017-08-26T15:38:54.365Z,73.30
2017-08-26T15:41:21.903Z,73.70
2017-08-26T15:43:50.055Z,73.60
2017-08-26T15:46:18.251Z,73.60
2017-08-26T15:48:45.770Z,73.40
2017-08-26T15:51:13.378Z,72.60
2017-08-26T15:53:40.928Z,73.40
2017-08-26T15:56:08.455Z,72.70
2017-08-26T15:58:36.006Z,71.80
2017-08-26T16:01:17.158Z,72.60
2017-08-26T16:03:44.887Z,72.60
2017-08-26T16:06:15.401Z,73.50
2017-08-26T16:08:51.248Z,74.20
2017-08-26T16:11:20.773Z,74.20
2017-08-26T16:13:48.316Z,74.70
2017-08-26T16:16:16.750Z,74.60
2017-08-26T16:18:44.274Z,73.90
2017-08-26T16:21:11.864Z,74.30
2017-08-26T16:23:39.407Z,74.00
2017-08-26T16:26:07.004Z,74.90
2017-08-26T16:28:34.510Z,73.60
2017-08-26T16:31:02.071Z,73.20
2017-08-26T16:33:29.908Z,74.20
2017-08-26T16:35:57.473Z,73.90
2017-08-26T16:38:25.081Z,73.30
2017-08-26T16:40:52.700Z,71.90
2017-08-26T16:43:21.347Z,71.40
2017-08-26T16:45:49.918Z,71.90
2017-08-26T16:48:17.513Z,72.60
2017-08-26T16:50:45.063Z,72.90
2017-08-26T16:53:12.572Z,72.20
2017-08-26T16:55:40.079Z,72.80
2017-08-26T16:58:07.609Z,72.20
2017-08-26T17:00:35.147Z,72.50
2017-08-26T17:03:02.718Z,71.80
2017-08-26T17:05:30.300Z,71.40
2017-08-26T17:07:57.852Z,71.90
2017-08-26T17:10:25.772Z,72.40
2017-08-26T17:12:53.313Z,72.40
2017-08-26T17:15:21.130Z,72.50
2017-08-26T17:17:49.077Z,72.40
2017-08-26T17:20:17.567Z,71.60
2017-08-26T17:22:53.888Z,71.90
2017-08-26T17:25:21.404Z,73.20
2017-08-26T17:27:49.801Z,72.70
2017-08-26T17:30:17.369Z,72.20
2017-08-26T17:32:44.877Z,72.70
2017-08-26T17:35:12.431Z,72.70
2017-08-26T17:37:39.985Z,72.70
2017-08-26T17:40:07.575Z,72.90
2017-08-26T17:42:35.483Z,72.80
2017-08-26T17:45:03.020Z,73.50
2017-08-26T17:47:30.549Z,73.10
2017-08-26T17:49:58.119Z,73.30
2017-08-26T17:52:25.651Z,73.90
2017-08-26T17:54:53.185Z,74.40
2017-08-26T17:57:21.242Z,74.50
2017-08-26T17:59:49.224Z,74.80
2017-08-26T18:02:16.760Z,74.00
2017-08-26T18:04:44.293Z,75.00
2017-08-26T18:07:12.036Z,74.80
2017-08-26T18:09:39.679Z,75.30
2017-08-26T18:12:07.217Z,75.50
2017-08-26T18:14:34.724Z,74.80
2017-08-26T18:17:02.258Z,75.20
2017-08-26T18:19:29.783Z,75.50
2017-08-26T18:21:57.339Z,75.90
2017-08-26T18:24:25.418Z,76.00
2017-08-26T18:26:53.052Z,75.80
2017-08-26T18:29:21.224Z,76.20
2017-08-26T18:31:49.125Z,75.80
2017-08-26T18:34:16.662Z,76.10
2017-08-26T18:36:44.193Z,76.10
2017-08-26T18:39:12.482Z,76.20
2017-08-26T18:41:40.172Z,76.40
2017-08-26T18:44:07.697Z,76.20
2017-08-26T18:46:35.212Z,76.70
2017-08-26T18:49:02.826Z,77.00
2017-08-26T18:51:30.360Z,77.10
2017-08-26T18:53:57.893Z,77.30
2017-08-26T18:56:25.412Z,76.80
2017-08-26T18:58:52.966Z,77.40
2017-08-26T19:01:21.652Z,77.40
2017-08-26T19:03:49.252Z,78.40
2017-08-26T19:06:16.782Z,78.30
2017-08-26T19:08:44.312Z,79.00
2017-08-26T19:11:11.869Z,79.70
2017-08-26T19:13:39.381Z,79.80
2017-08-26T19:16:06.936Z,79.80
2017-08-26T19:18:34.452Z,79.80
2017-08-26T19:21:02.021Z,80.60
2017-08-26T19:23:29.773Z,80.70
2017-08-26T19:25:57.378Z,81.20
2017-08-26T19:28:24.962Z,80.80
2017-08-26T19:30:52.510Z,80.70
2017-08-26T19:33:21.276Z,81.00
2017-08-26T19:35:49.557Z,81.80
2017-08-26T19:38:17.116Z,81.80
2017-08-26T19:40:44.645Z,81.70
2017-08-26T19:43:12.188Z,81.90
2017-08-26T19:45:39.771Z,82.60
2017-08-26T19:48:07.303Z,82.40
2017-08-26T19:50:34.871Z,82.30
2017-08-26T19:53:02.401Z,82.50
2017-08-26T19:55:30.004Z,82.60
2017-08-26T19:57:57.534Z,82.60
2017-08-26T20:00:25.070Z,82.80
2017-08-26T20:02:52.600Z,82.80
2017-08-26T20:05:21.333Z,83.90
2017-08-26T20:07:49.246Z,83.90
2017-08-26T20:10:16.783Z,84.00
2017-08-26T20:12:44.293Z,83.90
2017-08-26T20:15:11.834Z,84.10
2017-08-26T20:17:39.386Z,83.90
2017-08-26T20:20:06.929Z,83.80
2017-08-26T20:22:34.558Z,84.00
2017-08-26T20:25:02.191Z,84.20
2017-08-26T20:27:29.710Z,84.30
2017-08-26T20:29:57.232Z,84.30
2017-08-26T20:32:24.780Z,84.40
2017-08-26T20:34:52.324Z,85.20
2017-08-26T20:37:20.964Z,85.10
2017-08-26T20:39:48.472Z,85.10
2017-08-26T20:42:16.808Z,85.00
2017-08-26T20:44:44.313Z,84.90
2017-08-26T20:47:11.858Z,85.00
2017-08-26T20:49:39.388Z,85.20
2017-08-26T20:52:06.914Z,85.20
2017-08-26T20:54:34.414Z,85.40
2017-08-26T20:57:01.979Z,85.40
2017-08-26T20:59:29.522Z,86.30
2017-08-26T21:01:57.090Z,86.20
2017-08-26T21:04:24.615Z,85.90
2017-08-26T21:06:52.118Z,86.00
2017-08-26T21:09:20.083Z,85.80
2017-08-26T21:11:47.632Z,86.00
2017-08-26T21:14:15.179Z,86.00
2017-08-26T21:16:42.795Z,86.10
2017-08-26T21:19:10.383Z,86.10
2017-08-26T21:21:38.015Z,86.10
2017-08-26T21:24:05.525Z,86.20
2017-08-26T21:26:33.057Z,86.60
2017-08-26T21:29:00.599Z,86.80
2017-08-26T21:31:28.510Z,87.00
2017-08-26T21:33:56.035Z,86.40
2017-08-26T21:36:23.575Z,86.40
2017-08-26T21:38:51.112Z,86.40
2017-08-26T21:41:18.828Z,86.50
2017-08-26T21:43:46.360Z,87.00
2017-08-26T21:46:13.876Z,87.30
2017-08-26T21:48:41.409Z,87.10
2017-08-26T21:51:09.125Z,86.90
2017-08-26T21:53:36.694Z,86.70
2017-08-26T21:56:04.215Z,86.60
2017-08-26T21:58:32.633Z,86.70
2017-08-26T22:01:00.662Z,86.50
2017-08-26T22:03:28.198Z,86.50
2017-08-26T22:05:55.710Z,86.50
2017-08-26T22:08:23.253Z,86.50
2017-08-26T22:10:51.365Z,86.50
2017-08-26T22:13:19.383Z,87.30
2017-08-26T22:15:47.001Z,87.40
2017-08-26T22:18:14.525Z,87.30
2017-08-26T22:20:42.071Z,87.00
2017-08-26T22:23:09.584Z,87.00
2017-08-26T22:25:37.120Z,87.20
2017-08-26T22:28:04.648Z,87.10
2017-08-26T22:30:32.182Z,87.40
2017-08-26T22:32:59.704Z,87.20
2017-08-26T22:35:27.253Z,87.20
2017-08-26T22:37:54.824Z,87.50
2017-08-26T22:40:22.360Z,87.60
2017-08-26T22:42:49.897Z,87.60
2017-08-26T22:45:17.400Z,87.50
2017-08-26T22:47:44.933Z,87.20
2017-08-26T22:50:12.447Z,87.30
2017-08-26T22:52:40.101Z,88.00
2017-08-26T22:55:07.613Z,88.00
2017-08-26T22:57:35.160Z,87.90
2017-08-26T23:00:02.683Z,87.80
2017-08-26T23:02:30.207Z,87.60
2017-08-26T23:04:57.808Z,87.60
2017-08-26T23:07:25.322Z,87.80
2017-08-26T23:09:52.865Z,88.40
2017-08-26T23:12:20.930Z,88.20
2017-08-26T23:14:48.461Z,88.20
2017-08-26T23:17:15.977Z,88.50
2017-08-26T23:19:43.527Z,88.20
2017-08-26T23:22:11.051Z,88.10
2017-08-26T23:24:38.596Z,88.40
2017-08-26T23:27:06.126Z,88.70
2017-08-26T23:29:33.657Z,88.80
2017-08-26T23:32:01.198Z,88.60
2017-08-26T23:34:28.718Z,88.30
2017-08-26T23:36:56.262Z,88.20
2017-08-26T23:39:23.790Z,88.70
2017-08-26T23:41:51.347Z,88.70
2017-08-26T23:44:19.299Z,88.50
2017-08-26T23:46:46.841Z,88.40
2017-08-26T23:49:14.374Z,88.50
2017-08-26T23:51:41.926Z,88.90
2017-08-26T23:54:09.449Z,88.50
2017-08-26T23:56:36.973Z,88.80
2017-08-26T23:59:04.518Z,89.00
